sensor_id;sensor_type;location;lat;lon;timestamp;temperature;humidity
16521;DHT22;8373;48.110;11.522;2023-04-03T00:01:45;5.60;79.60
16521;DHT22;8373;48.110;11.522;2023-04-03T00:04:12;5.60;79.80
16521;DHT22;8373;48.110;11.522;2023-04-03T00:06:39;5.70;80.20
16521;DHT22;8373;48.110;11.522;2023-04-03T00:09:07;5.70;80.00
16521;DHT22;8373;48.110;11.522;2023-04-03T00:11:34;5.80;80.50
16521;DHT22;8373;48.110;11.522;2023-04-03T00:14:01;6.00;80.70
16521;DHT22;8373;48.110;11.522;2023-04-03T00:16:28;5.90;79.50
16521;DHT22;8373;48.110;11.522;2023-04-03T00:18:55;6.00;79.60
16521;DHT22;8373;48.110;11.522;2023-04-03T00:21:22;6.00;79.10
16521;DHT22;8373;48.110;11.522;2023-04-03T00:23:49;5.80;78.80
16521;DHT22;8373;48.110;11.522;2023-04-03T00:26:17;5.90;79.00
16521;DHT22;8373;48.110;11.522;2023-04-03T00:28:44;5.90;79.20
16521;DHT22;8373;48.110;11.522;2023-04-03T00:31:11;5.90;79.20
16521;DHT22;8373;48.110;11.522;2023-04-03T00:33:40;6.00;79.00
16521;DHT22;8373;48.110;11.522;2023-04-03T00:36:08;6.00;78.30
16521;DHT22;8373;48.110;11.522;2023-04-03T00:38:35;6.10;78.20
16521;DHT22;8373;48.110;11.522;2023-04-03T00:41:03;6.10;78.00
16521;DHT22;8373;48.110;11.522;2023-04-03T00:43:31;6.00;77.70
16521;DHT22;8373;48.110;11.522;2023-04-03T00:45:59;6.00;77.70
16521;DHT22;8373;48.110;11.522;2023-04-03T00:48:30;6.10;77.90
16521;DHT22;8373;48.110;11.522;2023-04-03T00:50:58;6.10;77.80
16521;DHT22;8373;48.110;11.522;2023-04-03T00:53:29;6.10;77.60
16521;DHT22;8373;48.110;11.522;2023-04-03T00:55:57;6.10;77.80
16521;DHT22;8373;48.110;11.522;2023-04-03T00:58:30;6.20;77.90
16521;DHT22;8373;48.110;11.522;2023-04-03T01:01:05;6.20;77.30
16521;DHT22;8373;48.110;11.522;2023-04-03T01:03:33;6.20;76.60
16521;DHT22;8373;48.110;11.522;2023-04-03T01:06:00;6.20;77.30
16521;DHT22;8373;48.110;11.522;2023-04-03T01:08:27;6.20;77.40
16521;DHT22;8373;48.110;11.522;2023-04-03T01:10:54;6.20;77.20
16521;DHT22;8373;48.110;11.522;2023-04-03T01:13:24;6.20;77.20
16521;DHT22;8373;48.110;11.522;2023-04-03T01:15:52;6.30;76.90
16521;DHT22;8373;48.110;11.522;2023-04-03T01:18:20;6.30;76.40
16521;DHT22;8373;48.110;11.522;2023-04-03T01:24:04;6.30;76.30
16521;DHT22;8373;48.110;11.522;2023-04-03T01:26:33;6.20;76.30
16521;DHT22;8373;48.110;11.522;2023-04-03T01:29:02;6.20;75.70
16521;DHT22;8373;48.110;11.522;2023-04-03T01:31:31;6.10;75.60
16521;DHT22;8373;48.110;11.522;2023-04-03T01:34:02;6.10;75.50
16521;DHT22;8373;48.110;11.522;2023-04-03T01:36:30;6.00;76.10
16521;DHT22;8373;48.110;11.522;2023-04-03T01:38:58;6.00;76.60
16521;DHT22;8373;48.110;11.522;2023-04-03T01:41:26;6.00;76.80
16521;DHT22;8373;48.110;11.522;2023-04-03T01:43:53;6.00;76.90
16521;DHT22;8373;48.110;11.522;2023-04-03T01:46:21;6.00;76.90
16521;DHT22;8373;48.110;11.522;2023-04-03T01:48:48;6.00;77.30
16521;DHT22;8373;48.110;11.522;2023-04-03T01:51:16;6.10;77.60
16521;DHT22;8373;48.110;11.522;2023-04-03T01:53:43;6.20;77.60
16521;DHT22;8373;48.110;11.522;2023-04-03T01:56:10;6.20;76.40
16521;DHT22;8373;48.110;11.522;2023-04-03T01:58:37;6.20;76.40
16521;DHT22;8373;48.110;11.522;2023-04-03T02:01:05;6.20;76.00
16521;DHT22;8373;48.110;11.522;2023-04-03T02:03:32;6.10;76.40
16521;DHT22;8373;48.110;11.522;2023-04-03T02:06:00;6.10;76.70
16521;DHT22;8373;48.110;11.522;2023-04-03T02:08:28;6.20;76.90
16521;DHT22;8373;48.110;11.522;2023-04-03T02:10:55;6.20;76.80
16521;DHT22;8373;48.110;11.522;2023-04-03T02:13:22;6.20;76.60
16521;DHT22;8373;48.110;11.522;2023-04-03T02:15:49;6.20;76.40
16521;DHT22;8373;48.110;11.522;2023-04-03T02:18:16;6.20;76.40
16521;DHT22;8373;48.110;11.522;2023-04-03T02:20:43;6.20;76.20
16521;DHT22;8373;48.110;11.522;2023-04-03T02:23:10;6.20;76.40
16521;DHT22;8373;48.110;11.522;2023-04-03T02:25:38;6.30;76.50
16521;DHT22;8373;48.110;11.522;2023-04-03T02:28:05;6.30;75.30
16521;DHT22;8373;48.110;11.522;2023-04-03T02:30:32;6.20;75.10
16521;DHT22;8373;48.110;11.522;2023-04-03T02:32:59;6.20;75.50
16521;DHT22;8373;48.110;11.522;2023-04-03T02:35:26;6.20;75.60
16521;DHT22;8373;48.110;11.522;2023-04-03T02:37:53;6.20;74.80
16521;DHT22;8373;48.110;11.522;2023-04-03T02:40:20;6.10;74.00
16521;DHT22;8373;48.110;11.522;2023-04-03T02:42:48;6.10;74.10
16521;DHT22;8373;48.110;11.522;2023-04-03T02:45:15;6.00;74.40
16521;DHT22;8373;48.110;11.522;2023-04-03T02:47:42;6.10;74.50
16521;DHT22;8373;48.110;11.522;2023-04-03T02:50:09;6.10;73.90
16521;DHT22;8373;48.110;11.522;2023-04-03T02:52:36;6.10;73.40
16521;DHT22;8373;48.110;11.522;2023-04-03T02:55:04;6.00;73.00
16521;DHT22;8373;48.110;11.522;2023-04-03T02:57:31;6.00;73.60
16521;DHT22;8373;48.110;11.522;2023-04-03T02:59:59;6.10;73.50
16521;DHT22;8373;48.110;11.522;2023-04-03T03:02:26;6.10;73.10
16521;DHT22;8373;48.110;11.522;2023-04-03T03:04:53;6.00;72.90
16521;DHT22;8373;48.110;11.522;2023-04-03T03:07:20;6.00;72.60
16521;DHT22;8373;48.110;11.522;2023-04-03T03:09:47;5.90;72.60
16521;DHT22;8373;48.110;11.522;2023-04-03T03:12:14;5.90;73.10
16521;DHT22;8373;48.110;11.522;2023-04-03T03:14:41;6.00;73.20
16521;DHT22;8373;48.110;11.522;2023-04-03T03:17:09;6.00;72.70
16521;DHT22;8373;48.110;11.522;2023-04-03T03:19:36;6.00;72.50
16521;DHT22;8373;48.110;11.522;2023-04-03T03:22:03;6.00;71.90
16521;DHT22;8373;48.110;11.522;2023-04-03T03:24:30;5.90;72.00
16521;DHT22;8373;48.110;11.522;2023-04-03T03:26:58;5.90;72.30
16521;DHT22;8373;48.110;11.522;2023-04-03T03:29:25;5.90;72.20
16521;DHT22;8373;48.110;11.522;2023-04-03T03:31:52;5.90;71.80
16521;DHT22;8373;48.110;11.522;2023-04-03T03:34:20;6.00;71.90
16521;DHT22;8373;48.110;11.522;2023-04-03T03:36:47;6.00;71.90
16521;DHT22;8373;48.110;11.522;2023-04-03T03:39:14;6.00;71.60
16521;DHT22;8373;48.110;11.522;2023-04-03T03:41:41;6.00;71.40
16521;DHT22;8373;48.110;11.522;2023-04-03T03:44:08;6.00;71.60
16521;DHT22;8373;48.110;11.522;2023-04-03T03:46:35;6.00;71.70
16521;DHT22;8373;48.110;11.522;2023-04-03T03:49:02;6.00;71.60
16521;DHT22;8373;48.110;11.522;2023-04-03T03:51:30;6.00;71.40
16521;DHT22;8373;48.110;11.522;2023-04-03T03:53:57;6.00;71.70
16521;DHT22;8373;48.110;11.522;2023-04-03T03:56:24;6.00;71.40
16521;DHT22;8373;48.110;11.522;2023-04-03T03:58:52;6.10;71.60
16521;DHT22;8373;48.110;11.522;2023-04-03T04:01:18;6.10;71.60
16521;DHT22;8373;48.110;11.522;2023-04-03T04:03:48;6.10;71.20
16521;DHT22;8373;48.110;11.522;2023-04-03T04:06:15;6.00;70.20
16521;DHT22;8373;48.110;11.522;2023-04-03T04:08:43;5.90;70.50
16521;DHT22;8373;48.110;11.522;2023-04-03T04:11:10;5.90;71.10
16521;DHT22;8373;48.110;11.522;2023-04-03T04:13:37;5.80;71.40
16521;DHT22;8373;48.110;11.522;2023-04-03T04:16:04;5.80;71.40
16521;DHT22;8373;48.110;11.522;2023-04-03T04:18:32;5.90;71.50
16521;DHT22;8373;48.110;11.522;2023-04-03T04:20:59;5.90;71.20
16521;DHT22;8373;48.110;11.522;2023-04-03T04:23:26;5.90;71.30
16521;DHT22;8373;48.110;11.522;2023-04-03T04:25:54;5.90;71.10
16521;DHT22;8373;48.110;11.522;2023-04-03T04:28:21;5.90;71.30
16521;DHT22;8373;48.110;11.522;2023-04-03T04:30:48;5.90;71.10
16521;DHT22;8373;48.110;11.522;2023-04-03T04:33:15;5.90;71.20
16521;DHT22;8373;48.110;11.522;2023-04-03T04:35:42;5.80;71.10
16521;DHT22;8373;48.110;11.522;2023-04-03T04:38:09;5.80;71.40
16521;DHT22;8373;48.110;11.522;2023-04-03T04:40:36;5.80;71.70
16521;DHT22;8373;48.110;11.522;2023-04-03T04:43:05;5.90;72.10
16521;DHT22;8373;48.110;11.522;2023-04-03T04:45:32;5.90;72.00
16521;DHT22;8373;48.110;11.522;2023-04-03T04:47:58;5.90;71.10
16521;DHT22;8373;48.110;11.522;2023-04-03T04:50:25;6.00;71.10
16521;DHT22;8373;48.110;11.522;2023-04-03T04:52:52;6.00;71.10
16521;DHT22;8373;48.110;11.522;2023-04-03T04:55:19;5.90;71.40
16521;DHT22;8373;48.110;11.522;2023-04-03T04:57:46;6.00;71.30
16521;DHT22;8373;48.110;11.522;2023-04-03T05:00:15;6.00;71.40
16521;DHT22;8373;48.110;11.522;2023-04-03T05:02:43;6.10;70.60
16521;DHT22;8373;48.110;11.522;2023-04-03T05:05:09;6.00;70.40
16521;DHT22;8373;48.110;11.522;2023-04-03T05:07:36;6.00;70.10
16521;DHT22;8373;48.110;11.522;2023-04-03T05:10:04;5.90;70.00
16521;DHT22;8373;48.110;11.522;2023-04-03T05:12:32;5.90;70.00
16521;DHT22;8373;48.110;11.522;2023-04-03T05:14:59;5.90;69.60
16521;DHT22;8373;48.110;11.522;2023-04-03T05:17:27;5.80;69.80
16521;DHT22;8373;48.110;11.522;2023-04-03T05:19:54;5.80;70.60
16521;DHT22;8373;48.110;11.522;2023-04-03T05:22:21;5.80;70.80
16521;DHT22;8373;48.110;11.522;2023-04-03T05:24:48;5.80;70.80
16521;DHT22;8373;48.110;11.522;2023-04-03T05:27:15;5.80;70.70
16521;DHT22;8373;48.110;11.522;2023-04-03T05:29:42;5.80;70.90
16521;DHT22;8373;48.110;11.522;2023-04-03T05:32:09;5.80;71.20
16521;DHT22;8373;48.110;11.522;2023-04-03T05:34:37;5.90;70.80
16521;DHT22;8373;48.110;11.522;2023-04-03T05:37:04;5.90;70.30
16521;DHT22;8373;48.110;11.522;2023-04-03T05:39:31;5.90;70.20
16521;DHT22;8373;48.110;11.522;2023-04-03T05:41:59;5.90;70.20
16521;DHT22;8373;48.110;11.522;2023-04-03T05:44:26;5.90;70.20
16521;DHT22;8373;48.110;11.522;2023-04-03T05:46:53;5.90;70.10
16521;DHT22;8373;48.110;11.522;2023-04-03T05:49:20;5.90;70.10
16521;DHT22;8373;48.110;11.522;2023-04-03T05:51:48;5.90;69.90
16521;DHT22;8373;48.110;11.522;2023-04-03T05:54:19;6.00;69.80
16521;DHT22;8373;48.110;11.522;2023-04-03T05:56:48;6.00;69.70
16521;DHT22;8373;48.110;11.522;2023-04-03T05:59:15;6.00;69.40
16521;DHT22;8373;48.110;11.522;2023-04-03T06:01:42;6.10;69.60
16521;DHT22;8373;48.110;11.522;2023-04-03T06:04:09;6.10;69.30
16521;DHT22;8373;48.110;11.522;2023-04-03T06:06:44;6.10;69.10
16521;DHT22;8373;48.110;11.522;2023-04-03T06:09:13;6.20;70.10
16521;DHT22;8373;48.110;11.522;2023-04-03T06:11:40;6.20;69.00
16521;DHT22;8373;48.110;11.522;2023-04-03T06:14:07;6.20;68.80
16521;DHT22;8373;48.110;11.522;2023-04-03T06:16:34;6.30;68.20
16521;DHT22;8373;48.110;11.522;2023-04-03T06:19:01;6.20;68.00
16521;DHT22;8373;48.110;11.522;2023-04-03T06:21:29;6.30;68.50
16521;DHT22;8373;48.110;11.522;2023-04-03T06:23:56;6.30;68.70
16521;DHT22;8373;48.110;11.522;2023-04-03T06:26:25;6.30;67.70
16521;DHT22;8373;48.110;11.522;2023-04-03T06:28:52;6.30;67.30
16521;DHT22;8373;48.110;11.522;2023-04-03T06:31:19;6.30;67.10
16521;DHT22;8373;48.110;11.522;2023-04-03T06:33:46;6.30;67.10
16521;DHT22;8373;48.110;11.522;2023-04-03T06:36:13;6.30;66.90
16521;DHT22;8373;48.110;11.522;2023-04-03T06:38:41;6.20;66.40
16521;DHT22;8373;48.110;11.522;2023-04-03T06:41:07;6.20;66.50
16521;DHT22;8373;48.110;11.522;2023-04-03T06:43:36;6.20;67.40
16521;DHT22;8373;48.110;11.522;2023-04-03T06:46:03;6.20;67.30
16521;DHT22;8373;48.110;11.522;2023-04-03T06:48:30;6.20;67.00
16521;DHT22;8373;48.110;11.522;2023-04-03T06:50:57;6.20;67.50
16521;DHT22;8373;48.110;11.522;2023-04-03T06:53:24;6.30;68.00
16521;DHT22;8373;48.110;11.522;2023-04-03T06:55:51;6.30;67.10
16521;DHT22;8373;48.110;11.522;2023-04-03T06:58:18;6.40;67.20
16521;DHT22;8373;48.110;11.522;2023-04-03T07:00:47;6.40;67.00
16521;DHT22;8373;48.110;11.522;2023-04-03T07:03:14;6.50;67.20
16521;DHT22;8373;48.110;11.522;2023-04-03T07:05:41;6.60;67.20
16521;DHT22;8373;48.110;11.522;2023-04-03T07:08:10;6.70;66.60
16521;DHT22;8373;48.110;11.522;2023-04-03T07:10:38;6.70;65.50
16521;DHT22;8373;48.110;11.522;2023-04-03T07:13:05;6.80;65.60
16521;DHT22;8373;48.110;11.522;2023-04-03T07:15:31;6.90;65.40
16521;DHT22;8373;48.110;11.522;2023-04-03T07:18:00;6.90;65.00
16521;DHT22;8373;48.110;11.522;2023-04-03T07:20:27;7.00;64.50
16521;DHT22;8373;48.110;11.522;2023-04-03T07:22:54;7.00;64.30
16521;DHT22;8373;48.110;11.522;2023-04-03T07:25:21;7.10;64.00
16521;DHT22;8373;48.110;11.522;2023-04-03T07:27:48;7.00;63.70
16521;DHT22;8373;48.110;11.522;2023-04-03T07:30:15;7.10;63.50
16521;DHT22;8373;48.110;11.522;2023-04-03T07:32:42;7.10;63.60
16521;DHT22;8373;48.110;11.522;2023-04-03T07:35:11;7.20;63.70
16521;DHT22;8373;48.110;11.522;2023-04-03T07:37:37;7.20;63.20
16521;DHT22;8373;48.110;11.522;2023-04-03T07:40:05;7.10;62.60
16521;DHT22;8373;48.110;11.522;2023-04-03T07:42:34;7.10;62.90
16521;DHT22;8373;48.110;11.522;2023-04-03T07:45:02;7.10;62.80
16521;DHT22;8373;48.110;11.522;2023-04-03T07:47:29;7.00;62.30
16521;DHT22;8373;48.110;11.522;2023-04-03T07:49:56;6.90;62.70
16521;DHT22;8373;48.110;11.522;2023-04-03T07:52:25;6.80;62.60
16521;DHT22;8373;48.110;11.522;2023-04-03T07:54:52;6.80;63.10
16521;DHT22;8373;48.110;11.522;2023-04-03T07:57:19;6.80;62.80
16521;DHT22;8373;48.110;11.522;2023-04-03T07:59:46;6.70;63.20
16521;DHT22;8373;48.110;11.522;2023-04-03T08:02:13;6.80;63.00
16521;DHT22;8373;48.110;11.522;2023-04-03T08:04:40;6.70;62.60
16521;DHT22;8373;48.110;11.522;2023-04-03T08:07:07;6.70;62.50
16521;DHT22;8373;48.110;11.522;2023-04-03T08:09:35;6.70;62.50
16521;DHT22;8373;48.110;11.522;2023-04-03T08:12:02;6.60;62.90
16521;DHT22;8373;48.110;11.522;2023-04-03T08:14:31;6.60;63.20
16521;DHT22;8373;48.110;11.522;2023-04-03T08:17:00;6.60;63.40
16521;DHT22;8373;48.110;11.522;2023-04-03T08:19:28;6.60;63.50
16521;DHT22;8373;48.110;11.522;2023-04-03T08:21:55;6.60;64.10
16521;DHT22;8373;48.110;11.522;2023-04-03T08:24:23;6.60;64.40
16521;DHT22;8373;48.110;11.522;2023-04-03T08:26:51;6.60;64.60
16521;DHT22;8373;48.110;11.522;2023-04-03T08:29:18;6.70;64.80
16521;DHT22;8373;48.110;11.522;2023-04-03T08:31:46;6.80;64.50
16521;DHT22;8373;48.110;11.522;2023-04-03T08:34:15;6.80;64.20
16521;DHT22;8373;48.110;11.522;2023-04-03T08:36:42;6.80;64.20
16521;DHT22;8373;48.110;11.522;2023-04-03T08:39:10;6.90;64.00
16521;DHT22;8373;48.110;11.522;2023-04-03T08:41:38;6.90;63.50
16521;DHT22;8373;48.110;11.522;2023-04-03T08:44:15;6.90;63.30
16521;DHT22;8373;48.110;11.522;2023-04-03T08:49:40;7.00;62.90
16521;DHT22;8373;48.110;11.522;2023-04-03T08:52:15;7.00;62.60
16521;DHT22;8373;48.110;11.522;2023-04-03T08:54:49;6.90;62.60
16521;DHT22;8373;48.110;11.522;2023-04-03T08:57:20;6.90;63.20
16521;DHT22;8373;48.110;11.522;2023-04-03T08:59:51;7.00;63.00
16521;DHT22;8373;48.110;11.522;2023-04-03T09:02:25;7.10;62.60
16521;DHT22;8373;48.110;11.522;2023-04-03T09:04:53;7.20;62.10
16521;DHT22;8373;48.110;11.522;2023-04-03T09:07:30;7.20;61.60
16521;DHT22;8373;48.110;11.522;2023-04-03T09:10:00;7.20;61.90
16521;DHT22;8373;48.110;11.522;2023-04-03T09:12:34;7.20;62.20
16521;DHT22;8373;48.110;11.522;2023-04-03T09:15:09;7.30;62.50
16521;DHT22;8373;48.110;11.522;2023-04-03T09:17:45;7.30;61.10
16521;DHT22;8373;48.110;11.522;2023-04-03T09:20:21;7.40;61.00
16521;DHT22;8373;48.110;11.522;2023-04-03T09:22:52;7.40;60.50
16521;DHT22;8373;48.110;11.522;2023-04-03T09:25:21;7.40;60.50
16521;DHT22;8373;48.110;11.522;2023-04-03T09:27:49;7.50;60.80
16521;DHT22;8373;48.110;11.522;2023-04-03T09:30:19;7.70;60.40
16521;DHT22;8373;48.110;11.522;2023-04-03T09:32:48;7.70;59.90
16521;DHT22;8373;48.110;11.522;2023-04-03T09:35:24;7.60;59.70
16521;DHT22;8373;48.110;11.522;2023-04-03T09:37:53;7.70;59.50
16521;DHT22;8373;48.110;11.522;2023-04-03T09:40:34;7.60;59.60
16521;DHT22;8373;48.110;11.522;2023-04-03T09:43:20;7.60;59.30
16521;DHT22;8373;48.110;11.522;2023-04-03T09:45:50;7.60;59.60
16521;DHT22;8373;48.110;11.522;2023-04-03T09:48:19;7.80;60.00
16521;DHT22;8373;48.110;11.522;2023-04-03T09:50:55;7.90;59.10
16521;DHT22;8373;48.110;11.522;2023-04-03T09:53:35;7.90;58.90
16521;DHT22;8373;48.110;11.522;2023-04-03T09:56:09;7.80;58.30
16521;DHT22;8373;48.110;11.522;2023-04-03T09:58:46;7.70;58.90
16521;DHT22;8373;48.110;11.522;2023-04-03T10:01:25;7.60;59.90
16521;DHT22;8373;48.110;11.522;2023-04-03T10:04:08;7.60;59.60
16521;DHT22;8373;48.110;11.522;2023-04-03T10:06:38;7.50;58.80
16521;DHT22;8373;48.110;11.522;2023-04-03T10:09:18;7.50;58.80
16521;DHT22;8373;48.110;11.522;2023-04-03T10:12:00;7.60;58.70
16521;DHT22;8373;48.110;11.522;2023-04-03T10:14:31;7.60;58.50
16521;DHT22;8373;48.110;11.522;2023-04-03T10:17:06;7.70;58.60
16521;DHT22;8373;48.110;11.522;2023-04-03T10:19:41;7.70;58.30
16521;DHT22;8373;48.110;11.522;2023-04-03T10:22:18;7.70;58.50
16521;DHT22;8373;48.110;11.522;2023-04-03T10:24:57;7.70;58.20
16521;DHT22;8373;48.110;11.522;2023-04-03T10:27:43;7.70;57.90
16521;DHT22;8373;48.110;11.522;2023-04-03T10:30:21;7.70;58.60
16521;DHT22;8373;48.110;11.522;2023-04-03T10:33:01;7.60;59.10
16521;DHT22;8373;48.110;11.522;2023-04-03T10:35:39;7.40;59.40
16521;DHT22;8373;48.110;11.522;2023-04-03T10:38:15;7.40;59.70
16521;DHT22;8373;48.110;11.522;2023-04-03T10:40:50;7.20;60.20
16521;DHT22;8373;48.110;11.522;2023-04-03T10:43:24;7.20;60.60
16521;DHT22;8373;48.110;11.522;2023-04-03T10:45:59;7.20;60.10
16521;DHT22;8373;48.110;11.522;2023-04-03T10:48:48;7.00;60.00
16521;DHT22;8373;48.110;11.522;2023-04-03T10:51:25;7.00;60.80
16521;DHT22;8373;48.110;11.522;2023-04-03T10:53:58;7.00;61.90
16521;DHT22;8373;48.110;11.522;2023-04-03T10:56:31;6.90;61.60
16521;DHT22;8373;48.110;11.522;2023-04-03T10:59:12;6.90;62.10
16521;DHT22;8373;48.110;11.522;2023-04-03T11:01:42;6.90;62.40
16521;DHT22;8373;48.110;11.522;2023-04-03T11:04:12;6.80;62.80
16521;DHT22;8373;48.110;11.522;2023-04-03T11:06:46;6.80;63.80
16521;DHT22;8373;48.110;11.522;2023-04-03T11:09:22;6.70;64.30
16521;DHT22;8373;48.110;11.522;2023-04-03T11:11:51;6.70;64.90
16521;DHT22;8373;48.110;11.522;2023-04-03T11:14:26;6.60;65.20
16521;DHT22;8373;48.110;11.522;2023-04-03T11:17:03;6.50;66.20
16521;DHT22;8373;48.110;11.522;2023-04-03T11:19:35;6.60;67.10
16521;DHT22;8373;48.110;11.522;2023-04-03T11:22:11;6.60;66.60
16521;DHT22;8373;48.110;11.522;2023-04-03T11:24:43;6.60;66.50
16521;DHT22;8373;48.110;11.522;2023-04-03T11:27:17;6.70;66.60
16521;DHT22;8373;48.110;11.522;2023-04-03T11:29:49;6.80;66.20
16521;DHT22;8373;48.110;11.522;2023-04-03T11:32:32;6.90;65.30
16521;DHT22;8373;48.110;11.522;2023-04-03T11:35:06;6.90;64.60
16521;DHT22;8373;48.110;11.522;2023-04-03T11:37:36;7.00;64.10
16521;DHT22;8373;48.110;11.522;2023-04-03T11:40:07;7.00;63.30
16521;DHT22;8373;48.110;11.522;2023-04-03T11:42:38;7.20;63.40
16521;DHT22;8373;48.110;11.522;2023-04-03T11:45:36;7.40;62.90
16521;DHT22;8373;48.110;11.522;2023-04-03T11:48:05;7.60;61.90
16521;DHT22;8373;48.110;11.522;2023-04-03T11:50:44;7.70;60.40
16521;DHT22;8373;48.110;11.522;2023-04-03T11:53:42;7.80;59.60
16521;DHT22;8373;48.110;11.522;2023-04-03T11:56:27;7.90;58.80
16521;DHT22;8373;48.110;11.522;2023-04-03T11:59:29;8.00;58.30
16521;DHT22;8373;48.110;11.522;2023-04-03T12:02:36;8.10;57.00
16521;DHT22;8373;48.110;11.522;2023-04-03T12:05:26;8.20;55.90
16521;DHT22;8373;48.110;11.522;2023-04-03T12:08:23;8.20;54.80
16521;DHT22;8373;48.110;11.522;2023-04-03T12:14:12;8.00;54.50
16521;DHT22;8373;48.110;11.522;2023-04-03T12:16:44;8.10;53.90
16521;DHT22;8373;48.110;11.522;2023-04-03T12:19:34;8.10;53.40
16521;DHT22;8373;48.110;11.522;2023-04-03T12:22:08;8.10;53.30
16521;DHT22;8373;48.110;11.522;2023-04-03T12:24:36;8.00;53.10
16521;DHT22;8373;48.110;11.522;2023-04-03T12:27:28;8.10;53.10
16521;DHT22;8373;48.110;11.522;2023-04-03T12:33:04;8.10;50.70
16521;DHT22;8373;48.110;11.522;2023-04-03T12:35:42;8.00;50.10
16521;DHT22;8373;48.110;11.522;2023-04-03T12:38:22;7.90;50.90
16521;DHT22;8373;48.110;11.522;2023-04-03T12:40:58;7.90;50.30
16521;DHT22;8373;48.110;11.522;2023-04-03T12:43:46;7.80;50.80
16521;DHT22;8373;48.110;11.522;2023-04-03T12:46:18;7.80;51.30
16521;DHT22;8373;48.110;11.522;2023-04-03T12:48:50;7.90;50.70
16521;DHT22;8373;48.110;11.522;2023-04-03T12:51:22;7.90;50.70
16521;DHT22;8373;48.110;11.522;2023-04-03T12:54:00;8.00;50.40
16521;DHT22;8373;48.110;11.522;2023-04-03T12:56:29;8.20;49.50
16521;DHT22;8373;48.110;11.522;2023-04-03T12:59:13;8.20;48.30
16521;DHT22;8373;48.110;11.522;2023-04-03T13:01:41;8.20;48.40
16521;DHT22;8373;48.110;11.522;2023-04-03T13:04:10;8.40;48.70
16521;DHT22;8373;48.110;11.522;2023-04-03T13:06:41;8.50;48.60
16521;DHT22;8373;48.110;11.522;2023-04-03T13:09:19;8.60;48.40
16521;DHT22;8373;48.110;11.522;2023-04-03T13:11:49;8.60;48.30
16521;DHT22;8373;48.110;11.522;2023-04-03T13:14:18;8.80;48.00
16521;DHT22;8373;48.110;11.522;2023-04-03T13:16:53;8.80;47.40
16521;DHT22;8373;48.110;11.522;2023-04-03T13:19:23;8.80;46.90
16521;DHT22;8373;48.110;11.522;2023-04-03T13:21:56;8.80;47.20
16521;DHT22;8373;48.110;11.522;2023-04-03T13:24:25;8.80;46.20
16521;DHT22;8373;48.110;11.522;2023-04-03T13:26:53;8.90;46.00
16521;DHT22;8373;48.110;11.522;2023-04-03T13:29:24;9.10;46.50
16521;DHT22;8373;48.110;11.522;2023-04-03T13:31:53;9.30;46.60
16521;DHT22;8373;48.110;11.522;2023-04-03T13:34:23;9.40;45.80
16521;DHT22;8373;48.110;11.522;2023-04-03T13:36:59;9.50;44.40
16521;DHT22;8373;48.110;11.522;2023-04-03T13:39:28;9.60;45.10
16521;DHT22;8373;48.110;11.522;2023-04-03T13:41:56;10.00;43.60
16521;DHT22;8373;48.110;11.522;2023-04-03T13:44:30;10.30;43.00
16521;DHT22;8373;48.110;11.522;2023-04-03T13:46:58;10.70;42.20
16521;DHT22;8373;48.110;11.522;2023-04-03T13:49:32;10.60;40.00
16521;DHT22;8373;48.110;11.522;2023-04-03T13:52:03;10.30;39.80
16521;DHT22;8373;48.110;11.522;2023-04-03T13:54:46;9.90;40.90
16521;DHT22;8373;48.110;11.522;2023-04-03T13:57:15;9.60;40.80
16521;DHT22;8373;48.110;11.522;2023-04-03T13:59:43;9.30;41.60
16521;DHT22;8373;48.110;11.522;2023-04-03T14:02:16;9.00;42.60
16521;DHT22;8373;48.110;11.522;2023-04-03T14:04:48;8.80;43.30
16521;DHT22;8373;48.110;11.522;2023-04-03T14:07:17;8.60;44.00
16521;DHT22;8373;48.110;11.522;2023-04-03T14:09:45;8.50;44.80
16521;DHT22;8373;48.110;11.522;2023-04-03T14:12:16;8.50;44.80
16521;DHT22;8373;48.110;11.522;2023-04-03T14:14:43;8.50;44.40
16521;DHT22;8373;48.110;11.522;2023-04-03T14:17:16;8.50;44.50
16521;DHT22;8373;48.110;11.522;2023-04-03T14:19:43;8.40;44.70
16521;DHT22;8373;48.110;11.522;2023-04-03T14:22:15;8.50;44.70
16521;DHT22;8373;48.110;11.522;2023-04-03T14:24:44;8.60;44.30
16521;DHT22;8373;48.110;11.522;2023-04-03T14:27:17;8.70;44.00
16521;DHT22;8373;48.110;11.522;2023-04-03T14:29:44;8.80;43.70
16521;DHT22;8373;48.110;11.522;2023-04-03T14:32:12;8.90;43.30
16521;DHT22;8373;48.110;11.522;2023-04-03T14:34:40;9.00;43.30
16521;DHT22;8373;48.110;11.522;2023-04-03T14:37:10;9.10;43.00
16521;DHT22;8373;48.110;11.522;2023-04-03T14:39:38;9.30;42.90
16521;DHT22;8373;48.110;11.522;2023-04-03T14:42:14;9.40;42.50
16521;DHT22;8373;48.110;11.522;2023-04-03T14:44:42;9.60;42.80
16521;DHT22;8373;48.110;11.522;2023-04-03T14:47:11;9.70;42.40
16521;DHT22;8373;48.110;11.522;2023-04-03T14:49:38;9.90;42.40
16521;DHT22;8373;48.110;11.522;2023-04-03T14:52:05;10.00;40.70
16521;DHT22;8373;48.110;11.522;2023-04-03T14:54:32;9.90;39.80
16521;DHT22;8373;48.110;11.522;2023-04-03T14:57:00;9.80;40.00
16521;DHT22;8373;48.110;11.522;2023-04-03T14:59:30;9.70;40.00
16521;DHT22;8373;48.110;11.522;2023-04-03T15:01:58;9.40;40.00
16521;DHT22;8373;48.110;11.522;2023-04-03T15:04:25;9.20;40.00
16521;DHT22;8373;48.110;11.522;2023-04-03T15:06:53;9.20;41.00
16521;DHT22;8373;48.110;11.522;2023-04-03T15:09:22;9.20;40.80
16521;DHT22;8373;48.110;11.522;2023-04-03T15:11:50;9.20;41.70
16521;DHT22;8373;48.110;11.522;2023-04-03T15:14:17;9.20;41.10
16521;DHT22;8373;48.110;11.522;2023-04-03T15:16:46;9.10;40.90
16521;DHT22;8373;48.110;11.522;2023-04-03T15:19:13;8.80;40.00
16521;DHT22;8373;48.110;11.522;2023-04-03T15:21:40;8.40;40.30
16521;DHT22;8373;48.110;11.522;2023-04-03T15:24:08;8.40;40.80
16521;DHT22;8373;48.110;11.522;2023-04-03T15:26:35;8.50;40.30
16521;DHT22;8373;48.110;11.522;2023-04-03T15:29:03;8.40;39.90
16521;DHT22;8373;48.110;11.522;2023-04-03T15:31:32;8.40;39.80
16521;DHT22;8373;48.110;11.522;2023-04-03T15:34:00;8.30;39.30
16521;DHT22;8373;48.110;11.522;2023-04-03T15:36:27;8.30;38.90
16521;DHT22;8373;48.110;11.522;2023-04-03T15:38:54;8.20;38.80
16521;DHT22;8373;48.110;11.522;2023-04-03T15:41:21;8.20;39.30
16521;DHT22;8373;48.110;11.522;2023-04-03T15:43:48;8.30;39.10
16521;DHT22;8373;48.110;11.522;2023-04-03T15:46:15;8.30;38.00
16521;DHT22;8373;48.110;11.522;2023-04-03T15:48:42;8.20;37.90
16521;DHT22;8373;48.110;11.522;2023-04-03T15:51:11;8.10;38.60
16521;DHT22;8373;48.110;11.522;2023-04-03T15:53:38;8.10;39.20
16521;DHT22;8373;48.110;11.522;2023-04-03T15:56:05;8.10;38.90
16521;DHT22;8373;48.110;11.522;2023-04-03T15:58:33;8.10;39.20
16521;DHT22;8373;48.110;11.522;2023-04-03T16:01:00;8.20;38.70
16521;DHT22;8373;48.110;11.522;2023-04-03T16:03:28;8.10;38.20
16521;DHT22;8373;48.110;11.522;2023-04-03T16:05:55;8.20;37.00
16521;DHT22;8373;48.110;11.522;2023-04-03T16:08:23;8.10;36.20
16521;DHT22;8373;48.110;11.522;2023-04-03T16:10:50;8.10;36.30
16521;DHT22;8373;48.110;11.522;2023-04-03T16:13:17;8.00;36.20
16521;DHT22;8373;48.110;11.522;2023-04-03T16:15:44;7.90;36.50